sensor_id;sensor_type;location;lat;lon;timestamp;P1;durP1;ratioP1;P2;durP2;ratioP2
16775;SDS011;8505;49.456;8.164;2023-07-13T00:01:48;5.22;;;1.40;;
16775;SDS011;8505;49.456;8.164;2023-07-13T00:04:17;3.63;;;1.38;;
16775;SDS011;8505;49.456;8.164;2023-07-13T00:06:45;4.85;;;1.40;;
16775;SDS011;8505;49.456;8.164;2023-07-13T00:09:15;6.80;;;1.50;;
16775;SDS011;8505;49.456;8.164;2023-07-13T00:11:45;4.93;;;1.50;;
16775;SDS011;8505;49.456;8.164;2023-07-13T00:14:14;4.55;;;1.63;;
16775;SDS011;8505;49.456;8.164;2023-07-13T00:16:42;4.60;;;1.40;;
16775;SDS011;8505;49.456;8.164;2023-07-13T00:19:10;5.27;;;1.70;;
16775;SDS011;8505;49.456;8.164;2023-07-13T00:21:39;4.57;;;1.30;;
16775;SDS011;8505;49.456;8.164;2023-07-13T00:24:07;4.03;;;1.30;;
16775;SDS011;8505;49.456;8.164;2023-07-13T00:26:40;3.60;;;1.20;;
16775;SDS011;8505;49.456;8.164;2023-07-13T00:29:10;3.55;;;1.20;;
16775;SDS011;8505;49.456;8.164;2023-07-13T00:31:38;4.38;;;1.50;;
16775;SDS011;8505;49.456;8.164;2023-07-13T00:34:06;3.10;;;1.40;;
16775;SDS011;8505;49.456;8.164;2023-07-13T00:36:34;4.78;;;1.48;;
16775;SDS011;8505;49.456;8.164;2023-07-13T00:39:02;4.07;;;1.50;;
16775;SDS011;8505;49.456;8.164;2023-07-13T00:41:31;2.30;;;1.45;;
16775;SDS011;8505;49.456;8.164;2023-07-13T00:44:00;4.63;;;1.50;;
16775;SDS011;8505;49.456;8.164;2023-07-13T00:46:29;3.38;;;1.48;;
16775;SDS011;8505;49.456;8.164;2023-07-13T00:48:59;4.72;;;1.45;;
16775;SDS011;8505;49.456;8.164;2023-07-13T00:51:31;3.13;;;1.45;;
16775;SDS011;8505;49.456;8.164;2023-07-13T00:54:03;3.20;;;1.40;;
16775;SDS011;8505;49.456;8.164;2023-07-13T00:56:33;3.78;;;1.40;;
16775;SDS011;8505;49.456;8.164;2023-07-13T00:59:04;2.90;;;1.40;;
16775;SDS011;8505;49.456;8.164;2023-07-13T01:01:34;5.28;;;1.60;;
16775;SDS011;8505;49.456;8.164;2023-07-13T01:04:03;3.92;;;1.52;;
16775;SDS011;8505;49.456;8.164;2023-07-13T01:06:34;6.03;;;1.60;;
16775;SDS011;8505;49.456;8.164;2023-07-13T01:09:03;4.00;;;1.50;;
16775;SDS011;8505;49.456;8.164;2023-07-13T01:11:32;3.72;;;1.50;;
16775;SDS011;8505;49.456;8.164;2023-07-13T01:14:00;4.45;;;1.70;;
16775;SDS011;8505;49.456;8.164;2023-07-13T01:16:30;3.80;;;1.52;;
16775;SDS011;8505;49.456;8.164;2023-07-13T01:18:59;3.83;;;1.55;;
16775;SDS011;8505;49.456;8.164;2023-07-13T01:21:32;4.53;;;1.50;;
16775;SDS011;8505;49.456;8.164;2023-07-13T01:24:00;5.30;;;1.77;;
16775;SDS011;8505;49.456;8.164;2023-07-13T01:26:28;3.93;;;1.73;;
16775;SDS011;8505;49.456;8.164;2023-07-13T01:28:56;6.57;;;1.80;;
16775;SDS011;8505;49.456;8.164;2023-07-13T01:31:24;5.20;;;1.80;;
16775;SDS011;8505;49.456;8.164;2023-07-13T01:33:52;5.57;;;1.80;;
16775;SDS011;8505;49.456;8.164;2023-07-13T01:36:19;5.63;;;1.80;;
16775;SDS011;8505;49.456;8.164;2023-07-13T01:38:49;3.00;;;1.80;;
16775;SDS011;8505;49.456;8.164;2023-07-13T01:41:17;5.50;;;1.75;;
16775;SDS011;8505;49.456;8.164;2023-07-13T01:43:44;4.57;;;1.75;;
16775;SDS011;8505;49.456;8.164;2023-07-13T01:46:12;5.35;;;1.80;;
16775;SDS011;8505;49.456;8.164;2023-07-13T01:48:43;3.97;;;1.63;;
16775;SDS011;8505;49.456;8.164;2023-07-13T01:51:10;6.85;;;1.90;;
16775;SDS011;8505;49.456;8.164;2023-07-13T01:53:39;3.25;;;1.60;;
16775;SDS011;8505;49.456;8.164;2023-07-13T01:56:08;3.90;;;1.63;;
16775;SDS011;8505;49.456;8.164;2023-07-13T01:58:36;5.33;;;1.83;;
16775;SDS011;8505;49.456;8.164;2023-07-13T02:01:04;3.92;;;1.80;;
16775;SDS011;8505;49.456;8.164;2023-07-13T02:03:32;4.20;;;1.92;;
16775;SDS011;8505;49.456;8.164;2023-07-13T02:06:00;6.50;;;1.90;;
16775;SDS011;8505;49.456;8.164;2023-07-13T02:08:27;5.22;;;1.92;;
16775;SDS011;8505;49.456;8.164;2023-07-13T02:10:55;3.08;;;1.73;;
16775;SDS011;8505;49.456;8.164;2023-07-13T02:13:24;4.03;;;1.92;;
16775;SDS011;8505;49.456;8.164;2023-07-13T02:15:52;5.03;;;1.83;;
16775;SDS011;8505;49.456;8.164;2023-07-13T02:18:20;3.22;;;1.77;;
16775;SDS011;8505;49.456;8.164;2023-07-13T02:20:48;4.50;;;1.85;;
16775;SDS011;8505;49.456;8.164;2023-07-13T02:23:15;5.18;;;1.90;;
16775;SDS011;8505;49.456;8.164;2023-07-13T02:25:43;5.25;;;2.00;;
16775;SDS011;8505;49.456;8.164;2023-07-13T02:28:11;4.72;;;1.85;;
16775;SDS011;8505;49.456;8.164;2023-07-13T02:30:40;4.68;;;2.00;;
16775;SDS011;8505;49.456;8.164;2023-07-13T02:33:08;3.83;;;1.80;;
16775;SDS011;8505;49.456;8.164;2023-07-13T02:35:38;4.10;;;1.90;;
16775;SDS011;8505;49.456;8.164;2023-07-13T02:38:06;5.72;;;1.90;;
16775;SDS011;8505;49.456;8.164;2023-07-13T02:40:35;4.97;;;2.00;;
16775;SDS011;8505;49.456;8.164;2023-07-13T02:43:02;5.40;;;2.00;;
16775;SDS011;8505;49.456;8.164;2023-07-13T02:45:30;4.05;;;1.95;;
16775;SDS011;8505;49.456;8.164;2023-07-13T02:47:59;4.03;;;2.10;;
16775;SDS011;8505;49.456;8.164;2023-07-13T02:50:27;4.87;;;2.10;;
16775;SDS011;8505;49.456;8.164;2023-07-13T02:52:55;4.97;;;2.17;;
16775;SDS011;8505;49.456;8.164;2023-07-13T02:55:22;5.65;;;2.20;;
16775;SDS011;8505;49.456;8.164;2023-07-13T02:57:50;4.53;;;2.08;;
16775;SDS011;8505;49.456;8.164;2023-07-13T03:00:18;5.10;;;2.10;;
16775;SDS011;8505;49.456;8.164;2023-07-13T03:02:46;4.50;;;2.10;;
16775;SDS011;8505;49.456;8.164;2023-07-13T03:05:15;5.93;;;2.38;;
16775;SDS011;8505;49.456;8.164;2023-07-13T03:07:44;4.68;;;2.30;;
16775;SDS011;8505;49.456;8.164;2023-07-13T03:10:12;5.88;;;2.30;;
16775;SDS011;8505;49.456;8.164;2023-07-13T03:12:40;5.55;;;2.20;;
16775;SDS011;8505;49.456;8.164;2023-07-13T03:15:08;4.60;;;2.30;;
16775;SDS011;8505;49.456;8.164;2023-07-13T03:17:36;4.38;;;2.40;;
16775;SDS011;8505;49.456;8.164;2023-07-13T03:20:04;4.82;;;2.10;;
16775;SDS011;8505;49.456;8.164;2023-07-13T03:22:34;5.22;;;2.50;;
16775;SDS011;8505;49.456;8.164;2023-07-13T03:25:02;4.40;;;2.17;;
16775;SDS011;8505;49.456;8.164;2023-07-13T03:27:30;4.88;;;2.40;;
16775;SDS011;8505;49.456;8.164;2023-07-13T03:29:58;4.53;;;2.15;;
16775;SDS011;8505;49.456;8.164;2023-07-13T03:32:26;5.03;;;2.23;;
16775;SDS011;8505;49.456;8.164;2023-07-13T03:34:53;5.40;;;2.17;;
16775;SDS011;8505;49.456;8.164;2023-07-13T03:37:21;5.07;;;2.27;;
16775;SDS011;8505;49.456;8.164;2023-07-13T03:39:50;4.55;;;2.30;;
16775;SDS011;8505;49.456;8.164;2023-07-13T03:42:18;4.22;;;2.33;;
16775;SDS011;8505;49.456;8.164;2023-07-13T03:44:46;4.57;;;2.40;;
16775;SDS011;8505;49.456;8.164;2023-07-13T03:47:18;5.68;;;2.47;;
16775;SDS011;8505;49.456;8.164;2023-07-13T03:49:46;7.63;;;2.53;;
16775;SDS011;8505;49.456;8.164;2023-07-13T03:52:14;7.00;;;2.47;;
16775;SDS011;8505;49.456;8.164;2023-07-13T03:54:41;3.40;;;2.10;;
16775;SDS011;8505;49.456;8.164;2023-07-13T03:57:10;5.27;;;2.27;;
16775;SDS011;8505;49.456;8.164;2023-07-13T03:59:38;4.37;;;2.50;;
16775;SDS011;8505;49.456;8.164;2023-07-13T04:02:06;5.35;;;2.45;;
16775;SDS011;8505;49.456;8.164;2023-07-13T04:04:34;6.45;;;2.30;;
16775;SDS011;8505;49.456;8.164;2023-07-13T04:07:02;4.70;;;2.33;;
16775;SDS011;8505;49.456;8.164;2023-07-13T04:09:30;4.78;;;2.15;;
16775;SDS011;8505;49.456;8.164;2023-07-13T04:11:58;5.38;;;2.20;;
16775;SDS011;8505;49.456;8.164;2023-07-13T04:14:27;4.97;;;2.17;;
16775;SDS011;8505;49.456;8.164;2023-07-13T04:16:55;5.88;;;2.30;;
16775;SDS011;8505;49.456;8.164;2023-07-13T04:19:23;5.07;;;2.17;;
16775;SDS011;8505;49.456;8.164;2023-07-13T04:21:51;4.53;;;2.33;;
16775;SDS011;8505;49.456;8.164;2023-07-13T04:24:19;5.63;;;2.40;;
16775;SDS011;8505;49.456;8.164;2023-07-13T04:26:46;5.93;;;2.33;;
16775;SDS011;8505;49.456;8.164;2023-07-13T04:29:14;7.10;;;2.58;;
16775;SDS011;8505;49.456;8.164;2023-07-13T04:31:43;5.93;;;2.53;;
16775;SDS011;8505;49.456;8.164;2023-07-13T04:34:11;5.30;;;2.30;;
16775;SDS011;8505;49.456;8.164;2023-07-13T04:36:39;5.88;;;2.22;;
16775;SDS011;8505;49.456;8.164;2023-07-13T04:39:06;6.20;;;2.30;;
16775;SDS011;8505;49.456;8.164;2023-07-13T04:41:35;4.60;;;2.28;;
16775;SDS011;8505;49.456;8.164;2023-07-13T04:44:02;4.95;;;2.00;;
16775;SDS011;8505;49.456;8.164;2023-07-13T04:46:30;6.20;;;2.42;;
16775;SDS011;8505;49.456;8.164;2023-07-13T04:49:00;6.15;;;2.40;;
16775;SDS011;8505;49.456;8.164;2023-07-13T04:51:30;4.35;;;2.20;;
16775;SDS011;8505;49.456;8.164;2023-07-13T04:53:57;4.30;;;2.08;;
16775;SDS011;8505;49.456;8.164;2023-07-13T04:56:27;4.20;;;1.95;;
16775;SDS011;8505;49.456;8.164;2023-07-13T04:58:55;6.38;;;2.38;;
16775;SDS011;8505;49.456;8.164;2023-07-13T05:01:23;4.05;;;2.15;;
16775;SDS011;8505;49.456;8.164;2023-07-13T05:03:51;3.90;;;2.08;;
16775;SDS011;8505;49.456;8.164;2023-07-13T05:06:20;4.85;;;2.05;;
16775;SDS011;8505;49.456;8.164;2023-07-13T05:08:48;5.60;;;1.90;;
16775;SDS011;8505;49.456;8.164;2023-07-13T05:11:17;4.70;;;2.10;;
16775;SDS011;8505;49.456;8.164;2023-07-13T05:13:45;4.53;;;2.10;;
16775;SDS011;8505;49.456;8.164;2023-07-13T05:16:13;4.95;;;2.10;;
16775;SDS011;8505;49.456;8.164;2023-07-13T05:18:40;4.90;;;1.98;;
16775;SDS011;8505;49.456;8.164;2023-07-13T05:21:09;4.17;;;2.00;;
16775;SDS011;8505;49.456;8.164;2023-07-13T05:23:40;4.50;;;2.10;;
16775;SDS011;8505;49.456;8.164;2023-07-13T05:26:08;3.80;;;2.03;;
16775;SDS011;8505;49.456;8.164;2023-07-13T05:28:36;4.45;;;2.00;;
16775;SDS011;8505;49.456;8.164;2023-07-13T05:31:06;3.28;;;1.90;;
16775;SDS011;8505;49.456;8.164;2023-07-13T05:33:35;5.10;;;1.97;;
16775;SDS011;8505;49.456;8.164;2023-07-13T05:36:03;5.77;;;1.93;;
16775;SDS011;8505;49.456;8.164;2023-07-13T05:38:31;5.43;;;2.00;;
16775;SDS011;8505;49.456;8.164;2023-07-13T05:41:01;4.18;;;1.80;;
16775;SDS011;8505;49.456;8.164;2023-07-13T05:43:31;3.70;;;1.70;;
16775;SDS011;8505;49.456;8.164;2023-07-13T05:45:59;4.10;;;2.00;;
16775;SDS011;8505;49.456;8.164;2023-07-13T05:48:26;4.77;;;2.00;;
16775;SDS011;8505;49.456;8.164;2023-07-13T05:50:54;4.75;;;1.90;;
16775;SDS011;8505;49.456;8.164;2023-07-13T05:53:22;4.78;;;2.00;;
16775;SDS011;8505;49.456;8.164;2023-07-13T05:55:50;4.60;;;1.80;;
16775;SDS011;8505;49.456;8.164;2023-07-13T05:58:20;5.20;;;2.10;;
16775;SDS011;8505;49.456;8.164;2023-07-13T06:00:48;5.28;;;2.10;;
16775;SDS011;8505;49.456;8.164;2023-07-13T06:03:16;3.53;;;1.90;;
16775;SDS011;8505;49.456;8.164;2023-07-13T06:05:44;4.25;;;1.75;;
16775;SDS011;8505;49.456;8.164;2023-07-13T06:08:12;5.13;;;1.73;;
16775;SDS011;8505;49.456;8.164;2023-07-13T06:10:39;3.90;;;1.83;;
16775;SDS011;8505;49.456;8.164;2023-07-13T06:13:07;4.65;;;1.90;;
16775;SDS011;8505;49.456;8.164;2023-07-13T06:15:37;5.43;;;1.85;;
16775;SDS011;8505;49.456;8.164;2023-07-13T06:18:05;5.90;;;1.80;;
16775;SDS011;8505;49.456;8.164;2023-07-13T06:20:33;4.38;;;1.67;;
16775;SDS011;8505;49.456;8.164;2023-07-13T06:23:01;4.90;;;1.85;;
16775;SDS011;8505;49.456;8.164;2023-07-13T06:25:29;4.88;;;1.67;;
16775;SDS011;8505;49.456;8.164;2023-07-13T06:27:57;3.65;;;1.80;;
16775;SDS011;8505;49.456;8.164;2023-07-13T06:30:24;5.15;;;1.85;;
16775;SDS011;8505;49.456;8.164;2023-07-13T06:32:54;3.47;;;1.60;;
16775;SDS011;8505;49.456;8.164;2023-07-13T06:35:21;4.07;;;1.60;;
16775;SDS011;8505;49.456;8.164;2023-07-13T06:37:49;4.13;;;1.65;;
16775;SDS011;8505;49.456;8.164;2023-07-13T06:40:17;5.40;;;1.80;;
16775;SDS011;8505;49.456;8.164;2023-07-13T06:42:45;3.20;;;1.65;;
16775;SDS011;8505;49.456;8.164;2023-07-13T06:45:12;4.88;;;1.80;;
16775;SDS011;8505;49.456;8.164;2023-07-13T06:47:40;6.07;;;1.73;;
16775;SDS011;8505;49.456;8.164;2023-07-13T06:50:10;4.80;;;1.70;;
16775;SDS011;8505;49.456;8.164;2023-07-13T06:52:37;4.90;;;1.70;;
16775;SDS011;8505;49.456;8.164;2023-07-13T06:55:05;4.57;;;1.77;;
16775;SDS011;8505;49.456;8.164;2023-07-13T06:57:34;5.30;;;2.10;;
16775;SDS011;8505;49.456;8.164;2023-07-13T07:00:02;4.80;;;1.65;;
16775;SDS011;8505;49.456;8.164;2023-07-13T07:02:30;10.23;;;2.25;;
16775;SDS011;8505;49.456;8.164;2023-07-13T07:04:58;12.15;;;2.25;;
16775;SDS011;8505;49.456;8.164;2023-07-13T07:07:27;4.05;;;1.58;;
16775;SDS011;8505;49.456;8.164;2023-07-13T07:09:55;4.47;;;1.52;;
16775;SDS011;8505;49.456;8.164;2023-07-13T07:12:22;3.78;;;1.50;;
16775;SDS011;8505;49.456;8.164;2023-07-13T07:14:50;5.35;;;1.60;;
16775;SDS011;8505;49.456;8.164;2023-07-13T07:17:18;5.53;;;1.70;;
16775;SDS011;8505;49.456;8.164;2023-07-13T07:19:49;6.03;;;1.80;;
16775;SDS011;8505;49.456;8.164;2023-07-13T07:22:17;7.47;;;1.70;;
16775;SDS011;8505;49.456;8.164;2023-07-13T07:24:46;4.87;;;1.63;;
16775;SDS011;8505;49.456;8.164;2023-07-13T07:27:14;5.25;;;1.77;;
16775;SDS011;8505;49.456;8.164;2023-07-13T07:29:44;4.35;;;1.50;;
16775;SDS011;8505;49.456;8.164;2023-07-13T07:32:32;3.72;;;1.60;;
16775;SDS011;8505;49.456;8.164;2023-07-13T07:35:03;3.05;;;1.40;;
16775;SDS011;8505;49.456;8.164;2023-07-13T07:37:31;5.15;;;1.67;;
16775;SDS011;8505;49.456;8.164;2023-07-13T07:40:03;4.22;;;1.50;;
16775;SDS011;8505;49.456;8.164;2023-07-13T07:42:35;3.92;;;1.30;;
16775;SDS011;8505;49.456;8.164;2023-07-13T07:45:03;4.13;;;1.30;;
16775;SDS011;8505;49.456;8.164;2023-07-13T07:47:31;5.63;;;1.50;;
16775;SDS011;8505;49.456;8.164;2023-07-13T07:50:00;5.00;;;1.30;;
16775;SDS011;8505;49.456;8.164;2023-07-13T07:52:27;4.60;;;1.15;;
16775;SDS011;8505;49.456;8.164;2023-07-13T07:54:55;4.45;;;1.00;;
16775;SDS011;8505;49.456;8.164;2023-07-13T07:57:44;4.68;;;1.30;;
16775;SDS011;8505;49.456;8.164;2023-07-13T08:00:18;3.27;;;1.10;;
16775;SDS011;8505;49.456;8.164;2023-07-13T08:02:49;3.40;;;1.20;;
16775;SDS011;8505;49.456;8.164;2023-07-13T08:05:20;4.00;;;1.20;;
16775;SDS011;8505;49.456;8.164;2023-07-13T08:08:04;3.42;;;1.30;;
16775;SDS011;8505;49.456;8.164;2023-07-13T08:10:34;3.80;;;1.23;;
16775;SDS011;8505;49.456;8.164;2023-07-13T08:13:04;4.88;;;1.17;;
16775;SDS011;8505;49.456;8.164;2023-07-13T08:15:34;5.00;;;1.20;;
16775;SDS011;8505;49.456;8.164;2023-07-13T08:18:03;3.80;;;1.17;;
16775;SDS011;8505;49.456;8.164;2023-07-13T08:20:31;5.32;;;1.20;;
16775;SDS011;8505;49.456;8.164;2023-07-13T08:22:59;6.75;;;1.40;;
16775;SDS011;8505;49.456;8.164;2023-07-13T08:25:27;5.35;;;1.40;;
16775;SDS011;8505;49.456;8.164;2023-07-13T08:27:55;2.95;;;1.25;;
16775;SDS011;8505;49.456;8.164;2023-07-13T08:30:24;4.28;;;1.15;;
16775;SDS011;8505;49.456;8.164;2023-07-13T08:32:52;4.93;;;1.40;;
16775;SDS011;8505;49.456;8.164;2023-07-13T08:35:20;2.80;;;1.15;;
16775;SDS011;8505;49.456;8.164;2023-07-13T08:37:48;4.90;;;1.23;;
16775;SDS011;8505;49.456;8.164;2023-07-13T08:40:16;4.38;;;1.15;;
16775;SDS011;8505;49.456;8.164;2023-07-13T08:42:49;4.20;;;1.20;;
16775;SDS011;8505;49.456;8.164;2023-07-13T08:45:22;4.50;;;1.20;;
16775;SDS011;8505;49.456;8.164;2023-07-13T08:47:57;3.67;;;1.10;;
16775;SDS011;8505;49.456;8.164;2023-07-13T08:50:30;3.15;;;1.00;;
16775;SDS011;8505;49.456;8.164;2023-07-13T08:53:19;4.60;;;1.00;;
16775;SDS011;8505;49.456;8.164;2023-07-13T08:55:48;5.88;;;1.10;;
16775;SDS011;8505;49.456;8.164;2023-07-13T08:58:23;4.07;;;1.00;;
16775;SDS011;8505;49.456;8.164;2023-07-13T09:00:58;3.50;;;1.00;;
16775;SDS011;8505;49.456;8.164;2023-07-13T09:03:34;4.03;;;1.02;;
16775;SDS011;8505;49.456;8.164;2023-07-13T09:06:07;3.15;;;1.17;;
16775;SDS011;8505;49.456;8.164;2023-07-13T09:08:46;5.53;;;1.17;;
16775;SDS011;8505;49.456;8.164;2023-07-13T09:11:26;5.75;;;1.13;;
16775;SDS011;8505;49.456;8.164;2023-07-13T09:14:05;4.13;;;1.10;;
16775;SDS011;8505;49.456;8.164;2023-07-13T09:16:41;6.47;;;0.95;;
16775;SDS011;8505;49.456;8.164;2023-07-13T09:19:11;5.15;;;1.10;;
16775;SDS011;8505;49.456;8.164;2023-07-13T09:21:50;4.18;;;0.85;;
16775;SDS011;8505;49.456;8.164;2023-07-13T09:24:26;4.82;;;1.30;;
16775;SDS011;8505;49.456;8.164;2023-07-13T09:26:59;2.35;;;1.05;;
16775;SDS011;8505;49.456;8.164;2023-07-13T09:29:30;2.92;;;0.90;;
16775;SDS011;8505;49.456;8.164;2023-07-13T09:32:03;4.90;;;1.30;;
16775;SDS011;8505;49.456;8.164;2023-07-13T09:34:35;4.43;;;1.20;;
16775;SDS011;8505;49.456;8.164;2023-07-13T09:37:03;4.63;;;1.20;;
16775;SDS011;8505;49.456;8.164;2023-07-13T09:39:33;4.03;;;1.30;;
16775;SDS011;8505;49.456;8.164;2023-07-13T09:42:06;4.68;;;1.10;;
16775;SDS011;8505;49.456;8.164;2023-07-13T09:44:50;3.47;;;0.90;;
16775;SDS011;8505;49.456;8.164;2023-07-13T09:47:21;3.03;;;1.10;;
16775;SDS011;8505;49.456;8.164;2023-07-13T09:49:56;5.95;;;1.23;;
16775;SDS011;8505;49.456;8.164;2023-07-13T09:52:39;3.30;;;1.08;;
16775;SDS011;8505;49.456;8.164;2023-07-13T09:57:57;3.20;;;1.10;;
16775;SDS011;8505;49.456;8.164;2023-07-13T10:00:31;3.58;;;1.08;;
16775;SDS011;8505;49.456;8.164;2023-07-13T10:03:02;5.00;;;1.13;;
16775;SDS011;8505;49.456;8.164;2023-07-13T10:05:39;4.10;;;1.20;;
16775;SDS011;8505;49.456;8.164;2023-07-13T10:08:18;6.10;;;1.20;;
16775;SDS011;8505;49.456;8.164;2023-07-13T10:10:52;4.28;;;1.10;;
16775;SDS011;8505;49.456;8.164;2023-07-13T10:13:26;3.65;;;1.10;;
16775;SDS011;8505;49.456;8.164;2023-07-13T10:15:57;3.80;;;0.93;;
16775;SDS011;8505;49.456;8.164;2023-07-13T10:18:29;2.43;;;1.00;;
16775;SDS011;8505;49.456;8.164;2023-07-13T10:21:09;2.83;;;1.10;;
16775;SDS011;8505;49.456;8.164;2023-07-13T10:24:02;2.90;;;1.10;;
16775;SDS011;8505;49.456;8.164;2023-07-13T10:26:37;2.40;;;1.10;;
16775;SDS011;8505;49.456;8.164;2023-07-13T10:29:14;4.43;;;1.00;;
16775;SDS011;8505;49.456;8.164;2023-07-13T10:31:44;2.53;;;1.00;;
16775;SDS011;8505;49.456;8.164;2023-07-13T10:34:14;2.63;;;1.10;;
16775;SDS011;8505;49.456;8.164;2023-07-13T10:36:45;3.87;;;1.10;;
16775;SDS011;8505;49.456;8.164;2023-07-13T10:39:15;3.28;;;1.10;;
16775;SDS011;8505;49.456;8.164;2023-07-13T10:41:46;3.33;;;1.08;;
16775;SDS011;8505;49.456;8.164;2023-07-13T10:44:21;3.80;;;1.20;;
16775;SDS011;8505;49.456;8.164;2023-07-13T10:46:53;3.25;;;1.10;;
16775;SDS011;8505;49.456;8.164;2023-07-13T10:49:26;3.72;;;1.10;;
16775;SDS011;8505;49.456;8.164;2023-07-13T10:51:55;3.97;;;1.20;;
16775;SDS011;8505;49.456;8.164;2023-07-13T10:54:26;3.33;;;1.20;;
16775;SDS011;8505;49.456;8.164;2023-07-13T10:59:46;3.65;;;1.30;;
16775;SDS011;8505;49.456;8.164;2023-07-13T11:02:21;2.97;;;1.10;;
16775;SDS011;8505;49.456;8.164;2023-07-13T11:04:55;3.07;;;1.07;;
16775;SDS011;8505;49.456;8.164;2023-07-13T11:07:25;2.85;;;1.00;;
16775;SDS011;8505;49.456;8.164;2023-07-13T11:09:55;4.40;;;1.25;;
16775;SDS011;8505;49.456;8.164;2023-07-13T11:12:28;3.90;;;0.98;;
16775;SDS011;8505;49.456;8.164;2023-07-13T11:15:27;5.25;;;1.20;;
16775;SDS011;8505;49.456;8.164;2023-07-13T11:18:00;3.53;;;1.10;;
16775;SDS011;8505;49.456;8.164;2023-07-13T11:20:32;2.70;;;1.15;;
16775;SDS011;8505;49.456;8.164;2023-07-13T11:25:59;2.80;;;1.58;;
16775;SDS011;8505;49.456;8.164;2023-07-13T11:28:30;3.00;;;1.40;;
16775;SDS011;8505;49.456;8.164;2023-07-13T11:31:03;3.50;;;1.27;;
16775;SDS011;8505;49.456;8.164;2023-07-13T11:33:48;3.20;;;1.23;;
16775;SDS011;8505;49.456;8.164;2023-07-13T11:36:21;4.03;;;1.15;;
16775;SDS011;8505;49.456;8.164;2023-07-13T11:38:55;4.10;;;1.30;;
16775;SDS011;8505;49.456;8.164;2023-07-13T11:41:28;2.63;;;1.20;;
16775;SDS011;8505;49.456;8.164;2023-07-13T11:44:06;3.42;;;1.17;;
16775;SDS011;8505;49.456;8.164;2023-07-13T11:46:38;3.55;;;1.17;;
16775;SDS011;8505;49.456;8.164;2023-07-13T11:49:06;4.22;;;1.20;;
16775;SDS011;8505;49.456;8.164;2023-07-13T11:51:36;3.47;;;1.10;;
16775;SDS011;8505;49.456;8.164;2023-07-13T11:54:05;3.90;;;1.30;;
16775;SDS011;8505;49.456;8.164;2023-07-13T11:56:41;3.85;;;1.20;;
16775;SDS011;8505;49.456;8.164;2023-07-13T11:59:10;4.43;;;1.20;;
16775;SDS011;8505;49.456;8.164;2023-07-13T12:01:42;2.88;;;1.15;;
16775;SDS011;8505;49.456;8.164;2023-07-13T12:04:17;4.40;;;1.25;;
16775;SDS011;8505;49.456;8.164;2023-07-13T12:06:54;3.17;;;1.30;;
16775;SDS011;8505;49.456;8.164;2023-07-13T12:09:26;2.75;;;1.30;;
16775;SDS011;8505;49.456;8.164;2023-07-13T12:11:56;3.85;;;1.33;;
16775;SDS011;8505;49.456;8.164;2023-07-13T12:14:26;3.92;;;1.23;;
16775;SDS011;8505;49.456;8.164;2023-07-13T12:16:55;3.53;;;1.30;;
16775;SDS011;8505;49.456;8.164;2023-07-13T12:19:24;3.03;;;1.00;;
16775;SDS011;8505;49.456;8.164;2023-07-13T12:21:56;4.25;;;1.10;;
16775;SDS011;8505;49.456;8.164;2023-07-13T12:24:26;4.35;;;1.30;;
16775;SDS011;8505;49.456;8.164;2023-07-13T12:26:58;3.38;;;1.20;;
16775;SDS011;8505;49.456;8.164;2023-07-13T12:29:28;2.47;;;1.00;;
16775;SDS011;8505;49.456;8.164;2023-07-13T12:31:56;3.83;;;1.20;;
16775;SDS011;8505;49.456;8.164;2023-07-13T12:34:25;3.40;;;1.10;;
16775;SDS011;8505;49.456;8.164;2023-07-13T12:36:58;2.77;;;1.27;;
16775;SDS011;8505;49.456;8.164;2023-07-13T12:39:28;3.33;;;1.15;;
16775;SDS011;8505;49.456;8.164;2023-07-13T12:42:13;4.68;;;1.33;;
16775;SDS011;8505;49.456;8.164;2023-07-13T12:44:46;2.88;;;1.20;;
16775;SDS011;8505;49.456;8.164;2023-07-13T12:47:15;3.07;;;1.10;;
16775;SDS011;8505;49.456;8.164;2023-07-13T12:49:47;4.85;;;1.50;;
16775;SDS011;8505;49.456;8.164;2023-07-13T12:52:21;3.40;;;1.15;;
16775;SDS011;8505;49.456;8.164;2023-07-13T12:54:55;2.60;;;1.23;;
16775;SDS011;8505;49.456;8.164;2023-07-13T12:57:32;3.22;;;1.10;;
16775;SDS011;8505;49.456;8.164;2023-07-13T13:00:09;3.40;;;1.20;;
16775;SDS011;8505;49.456;8.164;2023-07-13T13:02:49;3.27;;;1.10;;
16775;SDS011;8505;49.456;8.164;2023-07-13T13:05:18;3.40;;;1.30;;
16775;SDS011;8505;49.456;8.164;2023-07-13T13:07:51;2.60;;;1.20;;
16775;SDS011;8505;49.456;8.164;2023-07-13T13:10:19;2.88;;;1.10;;
16775;SDS011;8505;49.456;8.164;2023-07-13T13:12:48;2.85;;;1.20;;
16775;SDS011;8505;49.456;8.164;2023-07-13T13:15:16;4.20;;;1.20;;
16775;SDS011;8505;49.456;8.164;2023-07-13T13:17:44;3.55;;;1.10;;
16775;SDS011;8505;49.456;8.164;2023-07-13T13:20:14;3.75;;;1.20;;
16775;SDS011;8505;49.456;8.164;2023-07-13T13:22:43;3.95;;;1.23;;
16775;SDS011;8505;49.456;8.164;2023-07-13T13:25:13;3.42;;;1.33;;
16775;SDS011;8505;49.456;8.164;2023-07-13T13:27:42;3.92;;;1.20;;
16775;SDS011;8505;49.456;8.164;2023-07-13T13:30:12;2.80;;;1.17;;
16775;SDS011;8505;49.456;8.164;2023-07-13T13:32:42;4.47;;;1.38;;
16775;SDS011;8505;49.456;8.164;2023-07-13T13:35:13;4.43;;;1.30;;
16775;SDS011;8505;49.456;8.164;2023-07-13T13:37:42;3.28;;;1.30;;
16775;SDS011;8505;49.456;8.164;2023-07-13T13:40:16;4.68;;;1.20;;
16775;SDS011;8505;49.456;8.164;2023-07-13T13:42:45;3.53;;;1.20;;
16775;SDS011;8505;49.456;8.164;2023-07-13T13:45:14;3.23;;;1.10;;
16775;SDS011;8505;49.456;8.164;2023-07-13T13:47:44;5.10;;;1.45;;
16775;SDS011;8505;49.456;8.164;2023-07-13T13:50:15;3.65;;;1.27;;
16775;SDS011;8505;49.456;8.164;2023-07-13T13:52:45;4.00;;;1.40;;
16775;SDS011;8505;49.456;8.164;2023-07-13T13:55:15;2.75;;;1.10;;
16775;SDS011;8505;49.456;8.164;2023-07-13T13:57:45;5.97;;;1.42;;
16775;SDS011;8505;49.456;8.164;2023-07-13T14:00:14;4.45;;;1.17;;
16775;SDS011;8505;49.456;8.164;2023-07-13T14:02:45;4.43;;;1.10;;
16775;SDS011;8505;49.456;8.164;2023-07-13T14:05:17;3.97;;;1.20;;
16775;SDS011;8505;49.456;8.164;2023-07-13T14:07:49;3.63;;;1.10;;
16775;SDS011;8505;49.456;8.164;2023-07-13T14:10:19;4.35;;;1.35;;
16775;SDS011;8505;49.456;8.164;2023-07-13T14:12:48;3.80;;;1.30;;
16775;SDS011;8505;49.456;8.164;2023-07-13T14:15:20;4.22;;;1.20;;
16775;SDS011;8505;49.456;8.164;2023-07-13T14:17:49;3.13;;;1.20;;
16775;SDS011;8505;49.456;8.164;2023-07-13T14:20:17;5.28;;;1.30;;
16775;SDS011;8505;49.456;8.164;2023-07-13T14:22:47;3.40;;;1.30;;
16775;SDS011;8505;49.456;8.164;2023-07-13T14:25:16;3.63;;;1.20;;
16775;SDS011;8505;49.456;8.164;2023-07-13T14:27:48;3.22;;;1.33;;
16775;SDS011;8505;49.456;8.164;2023-07-13T14:30:20;3.22;;;1.30;;
16775;SDS011;8505;49.456;8.164;2023-07-13T14:32:48;3.05;;;1.10;;
16775;SDS011;8505;49.456;8.164;2023-07-13T14:35:17;4.05;;;1.10;;
16775;SDS011;8505;49.456;8.164;2023-07-13T14:37:48;2.47;;;1.20;;
16775;SDS011;8505;49.456;8.164;2023-07-13T14:40:17;3.78;;;1.20;;
16775;SDS011;8505;49.456;8.164;2023-07-13T14:42:49;4.47;;;1.27;;
16775;SDS011;8505;49.456;8.164;2023-07-13T14:45:17;3.25;;;1.50;;
16775;SDS011;8505;49.456;8.164;2023-07-13T14:47:46;3.17;;;1.20;;
16775;SDS011;8505;49.456;8.164;2023-07-13T14:50:15;4.25;;;1.25;;
16775;SDS011;8505;49.456;8.164;2023-07-13T14:52:46;3.55;;;1.27;;
16775;SDS011;8505;49.456;8.164;2023-07-13T14:55:16;2.38;;;1.05;;
16775;SDS011;8505;49.456;8.164;2023-07-13T14:57:46;3.65;;;1.35;;
16775;SDS011;8505;49.456;8.164;2023-07-13T15:00:17;4.38;;;1.23;;
16775;SDS011;8505;49.456;8.164;2023-07-13T15:02:47;2.65;;;1.20;;
16775;SDS011;8505;49.456;8.164;2023-07-13T15:05:18;5.40;;;1.33;;
16775;SDS011;8505;49.456;8.164;2023-07-13T15:07:47;3.05;;;1.20;;
16775;SDS011;8505;49.456;8.164;2023-07-13T15:10:16;3.50;;;1.20;;
16775;SDS011;8505;49.456;8.164;2023-07-13T15:12:47;3.40;;;1.20;;
16775;SDS011;8505;49.456;8.164;2023-07-13T15:15:15;3.13;;;1.20;;
16775;SDS011;8505;49.456;8.164;2023-07-13T15:17:44;3.25;;;1.00;;
16775;SDS011;8505;49.456;8.164;2023-07-13T15:20:19;3.40;;;1.30;;
16775;SDS011;8505;49.456;8.164;2023-07-13T15:22:51;3.17;;;1.20;;
16775;SDS011;8505;49.456;8.164;2023-07-13T15:25:20;3.10;;;1.20;;
16775;SDS011;8505;49.456;8.164;2023-07-13T15:27:52;5.28;;;1.33;;